createdAt,value
2022-12-01T00:01:36.748Z,4.85
2022-12-01T00:04:29.611Z,4.32
2022-12-01T00:06:57.747Z,5.05
2022-12-01T00:09:43.434Z,4.35
2022-12-01T00:12:11.495Z,4.20
2022-12-01T00:14:40.015Z,4.63
2022-12-01T00:17:09.421Z,3.65
2022-12-01T00:19:37.528Z,4.03
2022-12-01T00:22:05.643Z,5.43
2022-12-01T00:24:33.885Z,4.97
2022-12-01T00:27:01.969Z,4.55
2022-12-01T00:29:30.111Z,5.03
2022-12-01T00:31:58.833Z,4.38
2022-12-01T00:34:28.819Z,5.20
2022-12-01T00:36:56.969Z,5.10
2022-12-01T00:39:25.107Z,3.85
2022-12-01T00:41:53.193Z,4.68
2022-12-01T00:44:21.278Z,4.15
2022-12-01T00:46:49.294Z,3.97
2022-12-01T00:49:17.546Z,4.28
2022-12-01T00:51:46.992Z,3.92
2022-12-01T00:54:15.223Z,4.22
2022-12-01T00:56:43.297Z,4.60
2022-12-01T00:59:11.546Z,4.28
2022-12-01T01:01:39.747Z,4.43
2022-12-01T01:04:07.974Z,4.03
2022-12-01T01:06:35.932Z,3.90
2022-12-01T01:09:05.459Z,4.30
2022-12-01T01:11:33.477Z,4.63
2022-12-01T01:14:01.574Z,5.50
2022-12-01T01:16:29.724Z,4.35
2022-12-01T01:18:58.389Z,3.97
2022-12-01T01:21:28.053Z,4.03
2022-12-01T01:23:57.566Z,3.92
2022-12-01T01:26:28.600Z,4.55
2022-12-01T01:28:58.836Z,5.05
2022-12-01T01:31:28.465Z,3.50
2022-12-01T01:33:56.969Z,4.00
2022-12-01T01:36:25.347Z,4.15
2022-12-01T01:38:55.119Z,3.92
2022-12-01T01:41:24.067Z,4.20
2022-12-01T01:43:56.001Z,4.28
2022-12-01T01:46:26.699Z,4.18
2022-12-01T01:48:57.840Z,4.20
2022-12-01T01:51:30.279Z,3.83
2022-12-01T01:54:02.251Z,4.63
2022-12-01T01:56:31.501Z,4.45
2022-12-01T01:59:01.286Z,4.18
2022-12-01T02:01:29.789Z,4.25
2022-12-01T02:03:58.037Z,3.75
2022-12-01T02:06:26.375Z,4.22
2022-12-01T02:08:54.501Z,4.03
2022-12-01T02:11:58.490Z,3.70
2022-12-01T02:14:42.529Z,3.90
2022-12-01T02:17:23.042Z,4.50
2022-12-01T02:20:32.004Z,5.38
2022-12-01T02:23:40.182Z,4.00
2022-12-01T02:26:19.484Z,4.22
2022-12-01T02:29:10.127Z,4.55
2022-12-01T02:31:44.243Z,3.72
2022-12-01T02:34:19.928Z,4.30
2022-12-01T02:36:53.174Z,4.00
2022-12-01T02:39:30.244Z,4.30
2022-12-01T02:42:05.517Z,4.18
2022-12-01T02:44:37.237Z,3.80
2022-12-01T02:47:12.274Z,3.60
2022-12-01T02:49:46.343Z,4.07
2022-12-01T02:52:16.050Z,4.15
2022-12-01T02:54:46.315Z,3.50
2022-12-01T02:57:16.214Z,4.95
2022-12-01T02:59:48.630Z,3.90
2022-12-01T03:02:28.517Z,3.92
2022-12-01T03:05:02.773Z,3.90
2022-12-01T03:07:52.587Z,4.10
2022-12-01T03:10:27.155Z,4.07
2022-12-01T03:13:08.576Z,5.20
2022-12-01T03:15:45.260Z,3.75
2022-12-01T03:18:24.464Z,3.95
2022-12-01T03:20:59.338Z,3.28
2022-12-01T03:23:32.417Z,4.43
2022-12-01T03:26:03.045Z,3.92
2022-12-01T03:28:34.433Z,4.80
2022-12-01T03:31:07.954Z,4.78
2022-12-01T03:33:41.520Z,4.50
2022-12-01T03:36:15.131Z,5.03
2022-12-01T03:38:46.711Z,4.82
2022-12-01T03:41:19.245Z,5.20
2022-12-01T03:43:53.140Z,6.03
2022-12-01T03:46:26.515Z,5.28
2022-12-01T03:48:56.141Z,5.00
2022-12-01T03:51:32.670Z,6.65
2022-12-01T03:54:05.015Z,4.65
2022-12-01T03:56:38.001Z,6.43
2022-12-01T03:59:08.894Z,5.85
2022-12-01T04:01:37.310Z,5.47
2022-12-01T04:04:09.073Z,6.28
2022-12-01T04:06:37.404Z,5.53
2022-12-01T04:09:05.639Z,6.30
2022-12-01T04:11:51.158Z,5.88
2022-12-01T04:14:19.224Z,8.02
2022-12-01T04:16:47.250Z,7.47
2022-12-01T04:19:16.894Z,7.50
2022-12-01T04:21:45.295Z,7.15
2022-12-01T04:24:13.559Z,7.75
2022-12-01T04:26:42.154Z,8.18
2022-12-01T04:29:11.858Z,7.05
2022-12-01T04:31:40.038Z,7.75
2022-12-01T04:34:08.519Z,7.93
2022-12-01T04:36:37.970Z,7.45
2022-12-01T04:39:06.398Z,7.72
2022-12-01T04:41:34.428Z,8.95
2022-12-01T04:44:02.515Z,9.15
2022-12-01T04:46:30.585Z,6.55
2022-12-01T04:48:58.635Z,7.82
2022-12-01T04:51:26.688Z,5.88
2022-12-01T04:53:56.143Z,7.82
2022-12-01T04:56:24.182Z,8.02
2022-12-01T04:58:52.188Z,8.82
2022-12-01T05:01:20.549Z,9.85
2022-12-01T05:03:50.355Z,7.00
2022-12-01T05:06:20.160Z,8.88
2022-12-01T05:08:48.867Z,7.63
2022-12-01T05:11:19.612Z,8.07
2022-12-01T05:13:49.625Z,8.50
2022-12-01T05:16:19.051Z,7.55
2022-12-01T05:18:50.396Z,9.55
2022-12-01T05:21:17.975Z,7.85
2022-12-01T05:23:46.647Z,8.85
2022-12-01T05:26:14.664Z,8.43
2022-12-01T05:28:44.367Z,9.15
2022-12-01T05:31:12.515Z,9.02
2022-12-01T05:33:40.714Z,9.32
2022-12-01T05:36:09.367Z,8.73
2022-12-01T05:38:37.403Z,9.20
2022-12-01T05:41:05.686Z,8.10
2022-12-01T05:43:33.756Z,9.43
2022-12-01T05:46:03.459Z,8.50
2022-12-01T05:48:31.602Z,9.15
2022-12-01T05:50:59.661Z,10.05
2022-12-01T05:53:27.676Z,9.65
2022-12-01T05:55:55.869Z,9.88
2022-12-01T05:58:23.975Z,11.45
2022-12-01T06:00:52.127Z,9.07
2022-12-01T06:03:21.663Z,9.68
2022-12-01T06:05:49.892Z,10.18
2022-12-01T06:08:17.932Z,8.90
2022-12-01T06:10:46.105Z,9.43
2022-12-01T06:13:14.318Z,9.25
2022-12-01T06:15:42.623Z,8.85
2022-12-01T06:18:11.103Z,7.87
2022-12-01T06:20:40.558Z,8.90
2022-12-01T06:23:08.697Z,10.45
2022-12-01T06:25:36.837Z,11.45
2022-12-01T06:28:05.200Z,10.52
2022-12-01T06:30:33.314Z,9.98
2022-12-01T06:33:01.370Z,9.18
2022-12-01T06:35:29.485Z,8.75
2022-12-01T06:37:58.980Z,9.52
2022-12-01T06:40:27.137Z,8.57
2022-12-01T06:42:55.274Z,9.88
2022-12-01T06:45:23.382Z,11.63
2022-12-01T06:47:54.845Z,9.15
2022-12-01T06:50:23.218Z,8.10
2022-12-01T06:52:52.699Z,10.43
2022-12-01T06:55:22.568Z,10.43
2022-12-01T06:57:51.086Z,9.15
2022-12-01T07:00:20.131Z,10.10
2022-12-01T07:02:48.461Z,7.55
2022-12-01T07:05:16.864Z,10.02
2022-12-01T07:07:45.449Z,9.85
2022-12-01T07:10:14.505Z,7.85
2022-12-01T07:12:44.225Z,8.60
2022-12-01T07:15:13.587Z,9.85
2022-12-01T07:17:41.663Z,11.88
2022-12-01T07:20:11.380Z,10.73
2022-12-01T07:22:40.006Z,9.48
2022-12-01T07:25:08.991Z,10.38
2022-12-01T07:27:37.089Z,10.75
2022-12-01T07:30:08.032Z,8.90
2022-12-01T07:32:37.018Z,9.40
2022-12-01T07:35:05.311Z,11.30
2022-12-01T07:37:33.489Z,9.03
2022-12-01T07:40:01.614Z,10.85
2022-12-01T07:42:29.686Z,8.93
2022-12-01T07:44:57.841Z,10.60
2022-12-01T07:47:27.332Z,8.00
2022-12-01T07:49:55.559Z,9.27
2022-12-01T07:52:25.649Z,9.77
2022-12-01T07:54:53.935Z,9.27
2022-12-01T07:57:22.211Z,9.68
2022-12-01T07:59:50.544Z,11.40
2022-12-01T08:02:20.811Z,10.13
2022-12-01T08:04:50.635Z,9.20
2022-12-01T08:07:18.777Z,9.32
2022-12-01T08:09:47.320Z,10.52
2022-12-01T08:12:15.763Z,9.93
2022-12-01T08:14:44.015Z,11.23
2022-12-01T08:17:12.277Z,9.93
2022-12-01T08:19:40.446Z,9.15
2022-12-01T08:22:10.096Z,10.10
2022-12-01T08:24:38.172Z,10.20
2022-12-01T08:27:06.481Z,8.05
2022-12-01T08:29:36.159Z,9.20
2022-12-01T08:32:04.588Z,9.77
2022-12-01T08:34:32.703Z,8.50
2022-12-01T08:37:00.875Z,10.50
2022-12-01T08:39:30.357Z,9.30
2022-12-01T08:41:58.584Z,8.65
2022-12-01T08:44:26.866Z,9.98
2022-12-01T08:46:55.155Z,11.13
2022-12-01T08:49:23.770Z,10.93
2022-12-01T08:51:51.926Z,9.82
2022-12-01T08:54:20.215Z,8.23
2022-12-01T08:56:49.921Z,8.80
2022-12-01T08:59:18.051Z,9.98
2022-12-01T09:01:55.236Z,9.65
2022-12-01T09:04:25.120Z,9.48
2022-12-01T09:06:54.610Z,8.20
2022-12-01T09:09:25.358Z,8.90
2022-12-01T09:11:55.260Z,8.45
2022-12-01T09:14:24.190Z,8.38
2022-12-01T09:16:52.985Z,9.40
2022-12-01T09:19:24.586Z,7.95
2022-12-01T09:21:53.466Z,8.60
2022-12-01T09:24:21.770Z,10.40
2022-12-01T09:26:49.933Z,9.85
2022-12-01T09:29:19.620Z,9.57
2022-12-01T09:31:47.962Z,9.00
2022-12-01T09:34:18.444Z,9.60
2022-12-01T09:36:47.410Z,8.15
2022-12-01T09:39:17.633Z,9.38
2022-12-01T09:41:55.787Z,10.93
2022-12-01T09:44:33.847Z,8.73
2022-12-01T09:47:11.154Z,9.98
2022-12-01T09:49:54.441Z,11.65
2022-12-01T09:52:24.375Z,9.88
2022-12-01T09:54:54.452Z,9.02
2022-12-01T09:57:30.871Z,9.60
2022-12-01T10:00:02.950Z,9.30
2022-12-01T10:02:35.770Z,9.77
2022-12-01T10:05:07.771Z,8.57
2022-12-01T10:07:41.183Z,10.10
2022-12-01T10:10:14.433Z,8.70
2022-12-01T10:12:44.240Z,10.93
2022-12-01T10:15:26.252Z,8.10
2022-12-01T10:18:04.039Z,9.32
2022-12-01T10:20:37.857Z,9.27
2022-12-01T10:23:29.400Z,7.88
2022-12-01T10:25:59.513Z,7.90
2022-12-01T10:28:51.688Z,8.75
2022-12-01T10:31:27.575Z,9.68
2022-12-01T10:34:02.838Z,9.50
2022-12-01T10:36:33.966Z,8.13
2022-12-01T10:39:05.757Z,7.80
2022-12-01T10:41:38.767Z,7.82
2022-12-01T10:44:10.117Z,9.32
2022-12-01T10:46:45.051Z,7.82
2022-12-01T10:49:15.423Z,8.63
2022-12-01T10:51:55.302Z,7.72
2022-12-01T10:54:24.326Z,7.78
2022-12-01T10:56:57.534Z,7.07
2022-12-01T10:59:30.408Z,6.35
2022-12-01T11:02:01.768Z,6.57
2022-12-01T11:04:45.163Z,7.97
2022-12-01T11:07:20.229Z,7.47
2022-12-01T11:10:00.963Z,7.85
2022-12-01T11:12:29.421Z,8.20
2022-12-01T11:14:58.869Z,7.32
2022-12-01T11:17:32.479Z,7.53
2022-12-01T11:20:18.029Z,7.38
2022-12-01T11:22:46.154Z,6.60
2022-12-01T11:25:21.813Z,7.20
2022-12-01T11:27:52.858Z,7.43
2022-12-01T11:30:24.033Z,5.40
2022-12-01T11:32:56.846Z,6.32
2022-12-01T11:35:27.130Z,5.68
2022-12-01T11:38:28.434Z,6.40
2022-12-01T11:40:49.382Z,5.53
2022-12-01T11:43:26.046Z,6.78
2022-12-01T11:45:55.680Z,7.55
2022-12-01T11:48:27.820Z,7.95
2022-12-01T11:51:08.531Z,6.28
2022-12-01T11:53:38.876Z,5.45
2022-12-01T11:56:20.071Z,7.20
2022-12-01T11:58:50.074Z,7.88
2022-12-01T12:01:29.219Z,7.00
2022-12-01T12:04:10.499Z,6.50
2022-12-01T12:06:50.553Z,7.85
2022-12-01T12:09:45.416Z,6.43
2022-12-01T12:12:24.719Z,6.07
2022-12-01T12:15:00.858Z,6.45
2022-12-01T12:17:48.399Z,7.32
2022-12-01T12:20:32.541Z,4.97
2022-12-01T12:23:22.431Z,5.60
2022-12-01T12:25:59.953Z,5.38
2022-12-01T12:28:39.224Z,6.35
2022-12-01T12:31:17.075Z,6.75
2022-12-01T12:34:12.405Z,6.97
2022-12-01T12:36:48.129Z,6.57
2022-12-01T12:39:33.256Z,7.72
2022-12-01T12:42:07.456Z,6.93
2022-12-01T12:44:50.794Z,6.90
2022-12-01T12:47:36.871Z,8.07
2022-12-01T12:50:16.083Z,6.90
2022-12-01T12:52:49.531Z,7.78
2022-12-01T12:55:26.312Z,7.00
2022-12-01T12:57:57.806Z,7.07
2022-12-01T13:00:28.195Z,8.45
2022-12-01T13:03:00.447Z,6.40
2022-12-01T13:05:36.090Z,7.50
2022-12-01T13:08:09.386Z,6.70
2022-12-01T13:10:42.048Z,6.40
2022-12-01T13:13:20.448Z,7.25
2022-12-01T13:15:51.780Z,8.00
2022-12-01T13:18:29.158Z,7.00
2022-12-01T13:20:59.124Z,7.13
2022-12-01T13:23:29.841Z,6.33
2022-12-01T13:26:01.436Z,7.53
2022-12-01T13:28:41.990Z,8.25
2022-12-01T13:31:12.365Z,6.72
2022-12-01T13:34:01.636Z,8.10
2022-12-01T13:36:47.647Z,6.80
2022-12-01T13:39:20.641Z,6.80
2022-12-01T13:42:03.002Z,6.37
2022-12-01T13:44:35.406Z,9.02
2022-12-01T13:47:06.381Z,7.30
2022-12-01T13:49:42.590Z,6.65
2022-12-01T13:52:49.363Z,8.10
2022-12-01T13:55:30.172Z,7.23
2022-12-01T13:58:25.294Z,8.53
2022-12-01T14:00:54.073Z,7.95
2022-12-01T14:03:56.884Z,8.05
2022-12-01T14:06:29.983Z,7.13
2022-12-01T14:09:01.021Z,8.38
2022-12-01T14:11:30.922Z,7.90
2022-12-01T14:14:01.762Z,6.55
2022-12-01T14:16:48.770Z,6.78
2022-12-01T14:19:31.398Z,6.97
2022-12-01T14:22:01.990Z,7.47
2022-12-01T14:24:36.255Z,7.57
2022-12-01T14:27:05.658Z,7.40
2022-12-01T14:29:36.127Z,7.07
2022-12-01T14:32:23.035Z,6.20
2022-12-01T14:35:02.501Z,6.30
2022-12-01T14:37:40.780Z,7.07
2022-12-01T14:40:16.720Z,7.72
2022-12-01T14:43:06.151Z,6.35
2022-12-01T14:45:40.435Z,7.00
2022-12-01T14:48:13.542Z,6.50
2022-12-01T14:50:49.144Z,7.93
2022-12-01T14:53:26.901Z,5.45
2022-12-01T14:55:57.656Z,5.50
2022-12-01T14:58:28.931Z,6.13
2022-12-01T15:01:04.628Z,7.00
2022-12-01T15:03:39.685Z,7.23
2022-12-01T15:06:08.591Z,6.27
2022-12-01T15:08:45.844Z,6.43
2022-12-01T15:11:23.652Z,5.63
2022-12-01T15:13:53.267Z,6.93
2022-12-01T15:16:26.161Z,6.93
2022-12-01T15:18:54.709Z,6.15
2022-12-01T15:21:26.214Z,6.45
2022-12-01T15:24:01.121Z,6.50
2022-12-01T15:26:32.040Z,6.43
2022-12-01T15:29:23.752Z,6.53
2022-12-01T15:31:54.958Z,5.73
2022-12-01T15:34:25.590Z,4.53
2022-12-01T15:36:54.643Z,4.27
2022-12-01T15:39:28.526Z,5.30
2022-12-01T15:41:56.905Z,5.90
2022-12-01T15:44:29.384Z,5.20
2022-12-01T15:46:57.926Z,4.77
2022-12-01T15:49:36.154Z,4.73
2022-12-01T15:52:09.471Z,6.10
2022-12-01T15:54:39.791Z,5.13
2022-12-01T15:57:09.326Z,4.77
2022-12-01T15:59:40.303Z,4.70
2022-12-01T16:02:28.108Z,4.32
2022-12-01T16:05:07.839Z,3.97
2022-12-01T16:08:11.568Z,5.03
2022-12-01T16:10:31.488Z,4.40
2022-12-01T16:13:39.680Z,4.70
2022-12-01T16:16:35.742Z,3.93
2022-12-01T16:19:22.048Z,5.77
2022-12-01T16:21:52.497Z,4.30
2022-12-01T16:24:24.537Z,5.40
2022-12-01T16:26:58.292Z,3.87
2022-12-01T16:29:28.798Z,5.13
2022-12-01T16:32:20.184Z,4.97
2022-12-01T16:34:49.541Z,4.90
2022-12-01T16:37:18.047Z,4.70
2022-12-01T16:39:47.646Z,4.20
2022-12-01T16:42:20.556Z,5.27
2022-12-01T16:44:50.496Z,5.47
2022-12-01T16:47:22.197Z,5.17
2022-12-01T16:49:54.779Z,4.97
2022-12-01T16:55:34.460Z,4.60
2022-12-01T16:58:04.009Z,4.33
2022-12-01T17:00:32.319Z,5.77
2022-12-01T17:03:00.694Z,5.57
2022-12-01T17:05:30.252Z,5.03
2022-12-01T17:07:58.681Z,6.15
2022-12-01T17:10:27.112Z,5.87
2022-12-01T17:12:55.655Z,4.70
2022-12-01T17:15:25.258Z,5.90
2022-12-01T17:17:54.414Z,5.10
2022-12-01T17:20:22.488Z,5.70
2022-12-01T17:22:51.288Z,6.20
2022-12-01T17:25:22.859Z,5.73
2022-12-01T17:27:50.961Z,5.53
2022-12-01T17:30:19.242Z,4.83
2022-12-01T17:32:48.862Z,5.60
2022-12-01T17:35:17.246Z,6.33
2022-12-01T17:37:45.519Z,5.80
2022-12-01T17:40:14.985Z,5.43
2022-12-01T17:42:48.727Z,4.77
2022-12-01T17:45:19.316Z,5.50
2022-12-01T17:47:48.885Z,5.67
2022-12-01T17:50:17.301Z,4.60
2022-12-01T17:52:45.706Z,4.87
2022-12-01T17:55:14.192Z,5.70
2022-12-01T17:57:42.743Z,5.23
2022-12-01T18:00:12.379Z,5.10
2022-12-01T18:02:40.666Z,5.37
2022-12-01T18:05:11.419Z,4.93
2022-12-01T18:07:40.813Z,4.20
2022-12-01T18:10:09.811Z,4.27
2022-12-01T18:12:38.142Z,5.77
2022-12-01T18:15:07.691Z,4.60
2022-12-01T18:17:36.222Z,4.97
2022-12-01T18:20:04.697Z,4.73
2022-12-01T18:22:34.344Z,5.27
2022-12-01T18:25:02.613Z,4.83
2022-12-01T18:27:31.192Z,5.50
2022-12-01T18:29:59.384Z,5.43
2022-12-01T18:32:27.702Z,4.27
2022-12-01T18:34:55.947Z,5.40
2022-12-01T18:37:24.245Z,6.03
2022-12-01T18:39:57.533Z,4.07
2022-12-01T18:42:25.888Z,4.50
2022-12-01T18:44:54.380Z,5.17
2022-12-01T18:47:22.695Z,5.13
2022-12-01T18:49:50.989Z,4.87
2022-12-01T18:52:19.220Z,4.40
2022-12-01T18:54:47.740Z,5.20
2022-12-01T18:57:19.725Z,5.03
2022-12-01T18:59:48.096Z,4.40
2022-12-01T19:02:16.596Z,4.40
2022-12-01T19:04:44.928Z,4.20
2022-12-01T19:07:13.329Z,6.07
2022-12-01T19:09:41.766Z,5.10
2022-12-01T19:12:10.127Z,6.00
2022-12-01T19:14:40.082Z,4.87
2022-12-01T19:17:08.784Z,5.93
2022-12-01T19:19:37.735Z,5.40
2022-12-01T19:22:07.110Z,4.40
2022-12-01T19:24:35.896Z,5.57
2022-12-01T19:27:05.181Z,4.07
2022-12-01T19:29:33.584Z,5.50
2022-12-01T19:32:03.486Z,4.83
2022-12-01T19:34:32.612Z,4.73
2022-12-01T19:37:01.431Z,5.97
2022-12-01T19:39:29.727Z,6.53
2022-12-01T19:41:58.694Z,4.00
2022-12-01T19:44:27.846Z,5.50
2022-12-01T19:46:59.578Z,5.37
2022-12-01T19:49:29.926Z,4.83
2022-12-01T19:51:58.860Z,5.43
2022-12-01T19:54:29.088Z,5.10
2022-12-01T19:56:58.799Z,5.37
2022-12-01T19:59:27.660Z,5.53
2022-12-01T20:01:56.718Z,5.47
2022-12-01T20:04:25.949Z,5.53
2022-12-01T20:06:56.657Z,5.80
2022-12-01T20:09:25.684Z,5.73
2022-12-01T20:11:55.665Z,5.40
2022-12-01T20:14:26.551Z,5.40
2022-12-01T20:16:58.215Z,6.07
2022-12-01T20:19:29.867Z,6.50
2022-12-01T20:22:01.470Z,5.90
2022-12-01T20:24:32.287Z,6.33
2022-12-01T20:27:01.121Z,5.27
2022-12-01T20:29:30.841Z,4.83
2022-12-01T20:32:01.926Z,5.77
2022-12-01T20:34:32.623Z,6.77
2022-12-01T20:37:03.314Z,6.87
2022-12-01T20:39:37.335Z,5.77
2022-12-01T20:42:07.481Z,5.13
2022-12-01T20:44:36.778Z,6.13
2022-12-01T20:47:06.381Z,5.20
2022-12-01T20:49:35.438Z,6.53
2022-12-01T20:52:06.039Z,6.40
2022-12-01T20:54:35.131Z,5.23
2022-12-01T20:57:04.192Z,5.63
2022-12-01T20:59:32.641Z,6.33
2022-12-01T21:02:01.277Z,6.40
2022-12-01T21:04:30.635Z,6.77
2022-12-01T21:06:59.608Z,7.97
2022-12-01T21:09:29.217Z,8.03
2022-12-01T21:12:17.231Z,5.93
2022-12-01T21:14:50.681Z,6.70
2022-12-01T21:17:33.296Z,8.57
2022-12-01T21:20:11.615Z,7.20
2022-12-01T21:22:40.115Z,5.67
2022-12-01T21:25:15.767Z,7.97
2022-12-01T21:27:44.133Z,7.20
2022-12-01T21:30:19.710Z,7.33
2022-12-01T21:32:49.724Z,7.40
2022-12-01T21:35:20.909Z,8.40
2022-12-01T21:37:50.588Z,6.50
2022-12-01T21:40:22.976Z,7.87
2022-12-01T21:42:52.016Z,8.80
2022-12-01T21:45:28.176Z,7.27
2022-12-01T21:48:02.773Z,5.70
2022-12-01T21:50:32.816Z,6.73
2022-12-01T21:53:01.347Z,7.30
2022-12-01T21:55:37.100Z,7.43
2022-12-01T21:58:22.671Z,8.37
2022-12-01T22:00:50.946Z,8.27
2022-12-01T22:03:28.172Z,6.70
2022-12-01T22:06:29.269Z,6.27
2022-12-01T22:08:51.542Z,8.47
2022-12-01T22:11:23.628Z,6.30
2022-12-01T22:13:56.366Z,6.63
2022-12-01T22:16:30.519Z,6.73
2022-12-01T22:19:01.177Z,7.50
2022-12-01T22:21:34.191Z,6.23
2022-12-01T22:24:23.375Z,6.63
2022-12-01T22:27:01.315Z,6.50
2022-12-01T22:29:31.385Z,6.90
2022-12-01T22:32:24.738Z,7.93
2022-12-01T22:34:56.513Z,7.57
2022-12-01T22:37:26.413Z,7.30
2022-12-01T22:39:56.868Z,7.77
2022-12-01T22:42:32.296Z,7.67
2022-12-01T22:45:02.423Z,7.30
2022-12-01T22:47:33.716Z,6.53
2022-12-01T22:50:02.254Z,7.73
2022-12-01T22:52:31.217Z,7.63
2022-12-01T22:54:59.421Z,6.93
2022-12-01T22:57:35.026Z,6.90
2022-12-01T23:00:15.413Z,7.90
2022-12-01T23:02:43.685Z,7.37
2022-12-01T23:05:23.332Z,7.87
2022-12-01T23:07:52.410Z,7.50
2022-12-01T23:10:23.249Z,7.40
2022-12-01T23:12:54.763Z,7.10
2022-12-01T23:15:32.223Z,7.77
2022-12-01T23:18:07.239Z,7.43
2022-12-01T23:20:36.270Z,7.47
2022-12-01T23:23:06.314Z,8.33
2022-12-01T23:25:35.776Z,6.30
2022-12-01T23:28:11.501Z,6.77
2022-12-01T23:30:43.250Z,6.13
2022-12-01T23:33:20.064Z,6.67
2022-12-01T23:35:52.345Z,7.47
2022-12-01T23:38:22.403Z,7.07
2022-12-01T23:40:52.493Z,6.57
2022-12-01T23:43:24.552Z,7.23
2022-12-01T23:45:59.736Z,8.80
2022-12-01T23:48:33.898Z,7.03
2022-12-01T23:51:02.463Z,7.70
2022-12-01T23:53:32.249Z,5.87
2022-12-01T23:56:05.567Z,6.63
2022-12-01T23:58:35.209Z,7.77
